Time;durP1;ratioP1;P1;durP2;ratioP2;P2;SDS_P1;SDS_P2;PMS_P1;PMS_P2;Temp;Humidity;BMP_temperature;BMP_pressure;BME280_temperature;BME280_humidity;BME280_pressure;Samples;Min_cycle;Max_cycle;Signal;HPM_P1;HPM_P2
2022/12/24 00:02:19;;;;;;;;;;;35.40;83.70;;;;;;5046356;28;19917;-69
2022/12/24 00:04:46;;;;;;;;;;;35.50;83.80;;;;;;5031072;28;19956;-69
2022/12/24 00:07:12;;;;;;;;;;;35.70;82.00;;;;;;5027545;28;20010;-69
2022/12/24 00:09:39;;;;;;;;;;;35.70;82.30;;;;;;5023539;28;20295;-69
2022/12/24 00:12:06;;;;;;;;;;;35.80;82.40;;;;;;5023951;28;19914;-70
2022/12/24 00:14:32;;;;;;;;;;;35.90;82.40;;;;;;5030307;28;19928;-70
2022/12/24 00:16:59;;;;;;;;;;;36.00;81.50;;;;;;5020401;28;19913;-69
2022/12/24 00:19:26;;;;;;;;;;;36.00;80.90;;;;;;5027011;28;20323;-70
2022/12/24 00:21:52;;;;;;;;;;;36.10;80.90;;;;;;5048119;28;19924;-69
2022/12/24 00:24:19;;;;;;;;;;;36.10;80.60;;;;;;5041641;28;20260;-70
2022/12/24 00:26:46;;;;;;;;;;;36.10;79.50;;;;;;5040303;28;19916;-70
2022/12/24 00:29:12;;;;;;;;;;;36.30;79.80;;;;;;5029609;28;19945;-68
2022/12/24 00:31:39;;;;;;;;;;;36.40;79.10;;;;;;5025797;28;19928;-69
2022/12/24 00:34:07;;;;;;;;;;;36.70;78.70;;;;;;5034255;28;19924;-70
2022/12/24 00:36:34;;;;;;;;;;;36.70;77.60;;;;;;5025904;28;19917;-70
2022/12/24 00:39:00;;;;;;;;;;;36.90;75.50;;;;;;5023268;28;20313;-69
2022/12/24 00:41:30;;;;;;;;;;;37.00;77.50;;;;;;5029311;28;20298;-70
2022/12/24 00:43:58;;;;;;;;;;;37.20;77.40;;;;;;5026551;28;19928;-70
2022/12/24 00:46:25;;;;;;;;;;;37.00;74.30;;;;;;5007732;28;19919;-70
2022/12/24 00:48:52;;;;;;;;;;;37.00;74.90;;;;;;5028900;28;19924;-70
2022/12/24 00:51:18;;;;;;;;;;;37.20;73.30;;;;;;5013795;28;19917;-70
2022/12/24 00:53:45;;;;;;;;;;;37.10;74.30;;;;;;5038078;28;19919;-70
2022/12/24 00:56:12;;;;;;;;;;;37.10;73.90;;;;;;5039283;28;19928;-69
2022/12/24 00:58:39;;;;;;;;;;;37.00;74.00;;;;;;5022477;28;20343;-69
2022/12/24 01:01:05;;;;;;;;;;;36.90;73.20;;;;;;5034431;28;19920;-72
2022/12/24 01:03:35;;;;;;;;;;;36.90;75.10;;;;;;5037406;28;19921;-70
2022/12/24 01:06:09;;;;;;;;;;;37.10;75.60;;;;;;5030720;28;19966;-70
2022/12/24 01:08:36;;;;;;;;;;;37.50;74.60;;;;;;5027591;28;19920;-71
2022/12/24 01:11:03;;;;;;;;;;;38.00;73.20;;;;;;5030947;28;20103;-70
2022/12/24 01:13:30;;;;;;;;;;;38.10;71.00;;;;;;5028170;28;19913;-70
2022/12/24 01:15:57;;;;;;;;;;;37.90;70.40;;;;;;5019332;28;20004;-70
2022/12/24 01:18:24;;;;;;;;;;;38.10;69.90;;;;;;5027667;28;19923;-71
2022/12/24 01:20:58;;;;;;;;;;;38.10;69.50;;;;;;5041306;28;19921;-70
2022/12/24 01:23:24;;;;;;;;;;;38.30;71.60;;;;;;5035327;28;19948;-71
2022/12/24 01:25:51;;;;;;;;;;;38.60;71.00;;;;;;5034098;28;19917;-70
2022/12/24 01:28:18;;;;;;;;;;;38.90;70.60;;;;;;5032042;28;20381;-70
2022/12/24 01:30:45;;;;;;;;;;;38.90;68.10;;;;;;5027650;28;20022;-70
2022/12/24 01:33:12;;;;;;;;;;;38.90;69.10;;;;;;5013746;28;19921;-69
2022/12/24 01:35:39;;;;;;;;;;;39.00;68.30;;;;;;5028597;28;20272;-69
2022/12/24 01:38:06;;;;;;;;;;;39.30;67.50;;;;;;5019257;28;20354;-69
2022/12/24 01:43:27;;;;;;;;;;;39.60;66.60;;;;;;5023364;28;19924;-69
2022/12/24 01:45:55;;;;;;;;;;;38.80;64.50;;;;;;5025148;28;19913;-70
2022/12/24 01:48:21;;;;;;;;;;;38.50;64.70;;;;;;5023482;28;19917;-69
2022/12/24 01:50:50;;;;;;;;;;;38.80;64.40;;;;;;5029797;28;20271;-70
2022/12/24 01:53:17;;;;;;;;;;;39.00;64.90;;;;;;5041050;28;19913;-70
2022/12/24 01:55:45;;;;;;;;;;;39.30;66.10;;;;;;5031409;28;20040;-70
2022/12/24 01:58:13;;;;;;;;;;;39.60;64.20;;;;;;5021428;28;19913;-70
2022/12/24 02:00:40;;;;;;;;;;;39.80;64.50;;;;;;5021574;28;19920;-70
2022/12/24 02:03:07;;;;;;;;;;;40.00;64.40;;;;;;5027102;28;19928;-69
2022/12/24 02:05:41;;;;;;;;;;;40.00;63.50;;;;;;5022562;28;20004;-71
2022/12/24 02:08:08;;;;;;;;;;;39.90;63.80;;;;;;5023369;28;19952;-69
2022/12/24 02:10:34;;;;;;;;;;;40.10;63.40;;;;;;5022186;28;19959;-70
2022/12/24 02:13:01;;;;;;;;;;;40.20;63.40;;;;;;5029497;28;19917;-69
2022/12/24 02:15:32;;;;;;;;;;;40.50;64.10;;;;;;5026357;28;20347;-69
2022/12/24 02:18:22;;;;;;;;;;;40.60;61.30;;;;;;5035160;28;19921;-70
2022/12/24 02:21:06;;;;;;;;;;;41.00;62.10;;;;;;5024370;28;20396;-69
2022/12/24 02:23:51;;;;;;;;;;;40.80;60.10;;;;;;5026346;28;19928;-71
2022/12/24 02:26:18;;;;;;;;;;;39.90;60.50;;;;;;5028018;28;19975;-71
2022/12/24 02:28:47;;;;;;;;;;;39.10;61.50;;;;;;5025775;28;20349;-70
2022/12/24 02:31:27;;;;;;;;;;;38.80;62.00;;;;;;5035793;28;19913;-71
2022/12/24 02:34:13;;;;;;;;;;;38.80;62.60;;;;;;5025510;28;19917;-71
2022/12/24 02:36:46;;;;;;;;;;;38.50;62.00;;;;;;5019992;28;20268;-71
2022/12/24 02:39:23;;;;;;;;;;;37.90;61.20;;;;;;5020840;28;19928;-71
2022/12/24 02:42:06;;;;;;;;;;;37.50;61.80;;;;;;5030821;28;20379;-71
2022/12/24 02:44:50;;;;;;;;;;;37.00;60.60;;;;;;5035904;28;19920;-71
2022/12/24 02:47:17;;;;;;;;;;;37.10;63.00;;;;;;5027058;28;20422;-70
2022/12/24 02:49:45;;;;;;;;;;;37.90;63.50;;;;;;5013819;28;19920;-69
2022/12/24 02:52:32;;;;;;;;;;;38.60;62.60;;;;;;5024656;28;19913;-70
2022/12/24 02:55:01;;;;;;;;;;;38.70;61.80;;;;;;5018273;28;19936;-70
2022/12/24 02:57:45;;;;;;;;;;;39.10;61.80;;;;;;5036984;28;20262;-70
2022/12/24 03:00:14;;;;;;;;;;;38.80;61.10;;;;;;5031424;28;19928;-70
2022/12/24 03:02:43;;;;;;;;;;;38.20;60.30;;;;;;5040415;28;20349;-68
2022/12/24 03:05:10;;;;;;;;;;;37.60;60.70;;;;;;5021356;28;19917;-68
2022/12/24 03:07:40;;;;;;;;;;;37.50;61.00;;;;;;5015447;28;19913;-68
2022/12/24 03:10:25;;;;;;;;;;;37.80;62.70;;;;;;5030876;28;19913;-68
2022/12/24 03:13:01;;;;;;;;;;;38.50;64.10;;;;;;5033540;28;19917;-67
2022/12/24 03:15:29;;;;;;;;;;;38.60;62.20;;;;;;5029450;28;20020;-67
2022/12/24 03:17:57;;;;;;;;;;;38.50;63.30;;;;;;5005263;28;19917;-68
2022/12/24 03:20:26;;;;;;;;;;;38.40;64.70;;;;;;5011505;28;19952;-68
2022/12/24 03:22:52;;;;;;;;;;;37.80;61.30;;;;;;5020038;28;20005;-68
2022/12/24 03:25:20;;;;;;;;;;;37.50;61.80;;;;;;5005934;28;20348;-68
2022/12/24 03:27:47;;;;;;;;;;;37.00;61.30;;;;;;5013536;28;20884;-68
2022/12/24 03:30:14;;;;;;;;;;;36.80;62.90;;;;;;5008847;28;20012;-68
2022/12/24 03:32:41;;;;;;;;;;;37.50;64.80;;;;;;5015539;28;20006;-68
2022/12/24 03:35:08;;;;;;;;;;;38.30;63.70;;;;;;5004993;28;19928;-68
2022/12/24 03:37:35;;;;;;;;;;;38.80;62.80;;;;;;4997754;28;20347;-68
2022/12/24 03:40:02;;;;;;;;;;;39.40;61.10;;;;;;5026298;28;19917;-68
2022/12/24 03:42:29;;;;;;;;;;;39.70;62.30;;;;;;5012279;28;19913;-68
2022/12/24 03:44:56;;;;;;;;;;;40.10;63.30;;;;;;5004397;28;19941;-69
2022/12/24 03:47:22;;;;;;;;;;;40.40;62.80;;;;;;5008725;28;19967;-67
2022/12/24 03:49:49;;;;;;;;;;;40.60;60.90;;;;;;5006048;28;19924;-69
2022/12/24 03:52:16;;;;;;;;;;;40.70;60.20;;;;;;5013273;28;20016;-68
2022/12/24 03:54:42;;;;;;;;;;;40.90;61.80;;;;;;5007485;28;19925;-69
2022/12/24 03:57:09;;;;;;;;;;;41.00;61.40;;;;;;5002541;28;19918;-69
2022/12/24 03:59:36;;;;;;;;;;;40.60;60.10;;;;;;5004022;28;19989;-69
2022/12/24 04:02:02;;;;;;;;;;;40.10;60.50;;;;;;5004048;28;20296;-68
2022/12/24 04:04:29;;;;;;;;;;;39.80;60.80;;;;;;5005631;28;20324;-69
2022/12/24 04:06:55;;;;;;;;;;;39.80;61.30;;;;;;5005539;28;19913;-69
2022/12/24 04:09:22;;;;;;;;;;;39.90;61.70;;;;;;5001724;28;19913;-68
2022/12/24 04:11:49;;;;;;;;;;;39.80;59.60;;;;;;5002509;28;19944;-68
2022/12/24 04:14:15;;;;;;;;;;;39.30;60.10;;;;;;5000251;28;19921;-69
2022/12/24 04:16:42;;;;;;;;;;;38.70;59.30;;;;;;5012277;28;19914;-68
2022/12/24 04:19:09;;;;;;;;;;;38.20;60.40;;;;;;5009671;28;19917;-68
2022/12/24 04:21:35;;;;;;;;;;;37.70;59.20;;;;;;5018370;28;19932;-68
2022/12/24 04:24:02;;;;;;;;;;;37.20;60.80;;;;;;5026479;28;19913;-68
2022/12/24 04:26:28;;;;;;;;;;;37.50;61.90;;;;;;5029507;28;20008;-68
2022/12/24 04:28:55;;;;;;;;;;;38.00;62.00;;;;;;5026365;28;20352;-68
2022/12/24 04:31:22;;;;;;;;;;;38.10;61.20;;;;;;5028840;28;20003;-68
2022/12/24 04:33:50;;;;;;;;;;;38.10;61.00;;;;;;5020801;28;19914;-68
2022/12/24 04:36:18;;;;;;;;;;;38.30;67.00;;;;;;5033219;28;20283;-68
2022/12/24 04:38:45;;;;;;;;;;;38.40;68.40;;;;;;5021790;28;19917;-68
2022/12/24 04:41:13;;;;;;;;;;;37.90;68.30;;;;;;5031715;28;19975;-68
2022/12/24 04:43:40;;;;;;;;;;;37.10;68.00;;;;;;5024100;28;19916;-68
2022/12/24 04:46:14;;;;;;;;;;;36.30;69.50;;;;;;5028257;28;19913;-68
2022/12/24 04:48:41;;;;;;;;;;;35.60;70.80;;;;;;5026166;28;19967;-68
2022/12/24 04:51:08;;;;;;;;;;;35.10;71.20;;;;;;5031067;28;19959;-68
2022/12/24 04:53:38;;;;;;;;;;;34.80;72.00;;;;;;5027193;28;19917;-68
2022/12/24 04:56:07;;;;;;;;;;;34.80;72.40;;;;;;5031218;28;20435;-68
2022/12/24 04:58:34;;;;;;;;;;;35.20;72.00;;;;;;5020771;28;19967;-67
2022/12/24 05:01:08;;;;;;;;;;;35.60;71.50;;;;;;5028789;28;20382;-67
2022/12/24 05:03:37;;;;;;;;;;;35.90;70.30;;;;;;5026233;28;20386;-68
2022/12/24 05:06:05;;;;;;;;;;;35.90;70.40;;;;;;5025830;28;20395;-67
2022/12/24 05:08:33;;;;;;;;;;;36.00;70.40;;;;;;5019248;28;19971;-68
2022/12/24 05:11:00;;;;;;;;;;;36.00;70.10;;;;;;5019796;28;19913;-71
2022/12/24 05:13:27;;;;;;;;;;;35.90;69.90;;;;;;5021953;28;20016;-68
2022/12/24 05:15:55;;;;;;;;;;;36.00;70.00;;;;;;5023551;28;20367;-68
2022/12/24 05:18:22;;;;;;;;;;;36.00;69.80;;;;;;5004651;28;19921;-68
2022/12/24 05:20:49;;;;;;;;;;;35.90;69.40;;;;;;5010004;28;19984;-66
2022/12/24 05:26:22;;;;;;;;;;;35.20;69.80;;;;;;4999052;28;20280;-68
2022/12/24 05:28:49;;;;;;;;;;;35.10;70.80;;;;;;5012421;28;19925;-68
2022/12/24 05:31:16;;;;;;;;;;;34.70;70.40;;;;;;5010039;28;19917;-68
2022/12/24 05:33:43;;;;;;;;;;;34.60;70.70;;;;;;4999683;28;19919;-68
2022/12/24 05:36:09;;;;;;;;;;;34.50;70.50;;;;;;5006334;28;19921;-68
2022/12/24 05:38:36;;;;;;;;;;;34.40;70.30;;;;;;4998835;28;19917;-68
2022/12/24 05:41:03;;;;;;;;;;;34.40;70.30;;;;;;4999439;28;19924;-69
2022/12/24 05:43:30;;;;;;;;;;;34.50;70.00;;;;;;5001856;28;19913;-68
2022/12/24 05:46:00;;;;;;;;;;;34.50;69.60;;;;;;4997481;28;20181;-68
2022/12/24 05:48:27;;;;;;;;;;;34.50;69.50;;;;;;5000601;28;19914;-68
2022/12/24 05:50:54;;;;;;;;;;;34.50;69.60;;;;;;5007176;28;20323;-68
2022/12/24 05:53:21;;;;;;;;;;;34.30;70.40;;;;;;4994506;28;20326;-68
2022/12/24 05:55:48;;;;;;;;;;;34.20;70.30;;;;;;5006073;28;19929;-67
2022/12/24 05:58:14;;;;;;;;;;;34.20;69.80;;;;;;4995669;28;19931;-68
2022/12/24 06:00:41;;;;;;;;;;;34.10;70.20;;;;;;4986395;28;19917;-68
2022/12/24 06:03:08;;;;;;;;;;;34.00;70.40;;;;;;5001792;28;19917;-68
2022/12/24 06:05:40;;;;;;;;;;;33.80;70.00;;;;;;4988017;28;20004;-69
2022/12/24 06:08:06;;;;;;;;;;;33.70;70.20;;;;;;4998814;28;19914;-68
2022/12/24 06:10:33;;;;;;;;;;;33.60;70.30;;;;;;5000023;28;19914;-69
2022/12/24 06:13:00;;;;;;;;;;;33.30;70.40;;;;;;5001158;28;19921;-67
2022/12/24 06:15:26;;;;;;;;;;;33.30;71.10;;;;;;5001525;28;19928;-68
2022/12/24 06:17:53;;;;;;;;;;;33.50;70.70;;;;;;4996604;28;19928;-67
2022/12/24 06:20:20;;;;;;;;;;;33.50;69.70;;;;;;4999175;28;19924;-67
2022/12/24 06:22:46;;;;;;;;;;;33.60;70.00;;;;;;5005167;28;19932;-68
2022/12/24 06:25:13;;;;;;;;;;;33.50;69.10;;;;;;5000133;28;19913;-68
2022/12/24 06:27:39;;;;;;;;;;;33.20;68.80;;;;;;4998931;28;19924;-68
2022/12/24 06:30:06;;;;;;;;;;;33.10;68.70;;;;;;4984036;28;20012;-68
2022/12/24 06:32:33;;;;;;;;;;;33.10;68.90;;;;;;5007315;28;19941;-67
2022/12/24 06:35:00;;;;;;;;;;;33.00;69.00;;;;;;5010158;28;19927;-68
2022/12/24 06:37:26;;;;;;;;;;;32.90;69.20;;;;;;5001477;28;19917;-68
2022/12/24 06:39:53;;;;;;;;;;;33.00;69.10;;;;;;5005843;28;19918;-67
2022/12/24 06:42:20;;;;;;;;;;;32.70;68.80;;;;;;5005039;28;19913;-67
2022/12/24 06:44:46;;;;;;;;;;;32.60;69.00;;;;;;5000759;28;20000;-67
2022/12/24 06:47:13;;;;;;;;;;;32.50;69.40;;;;;;4998058;28;19914;-68
2022/12/24 06:49:40;;;;;;;;;;;32.40;69.40;;;;;;5003162;28;19921;-67
2022/12/24 06:52:06;;;;;;;;;;;32.40;68.20;;;;;;5000069;28;19925;-69
2022/12/24 06:54:33;;;;;;;;;;;32.50;68.00;;;;;;4995699;28;19932;-70
2022/12/24 06:57:00;;;;;;;;;;;32.60;67.40;;;;;;5003636;28;19964;-69
2022/12/24 06:59:26;;;;;;;;;;;32.60;68.30;;;;;;5011011;28;19912;-68
2022/12/24 07:01:53;;;;;;;;;;;32.60;67.10;;;;;;4996621;28;19918;-67
2022/12/24 07:04:19;;;;;;;;;;;32.50;66.90;;;;;;4993932;28;19972;-68
2022/12/24 07:06:46;;;;;;;;;;;32.50;66.50;;;;;;5025432;28;20264;-68
2022/12/24 07:09:13;;;;;;;;;;;32.40;65.90;;;;;;5004879;28;19953;-68
2022/12/24 07:11:40;;;;;;;;;;;32.30;66.20;;;;;;5012517;28;19920;-69
2022/12/24 07:14:07;;;;;;;;;;;32.30;66.70;;;;;;5008310;28;20015;-68
2022/12/24 07:16:33;;;;;;;;;;;32.20;66.40;;;;;;5001032;28;19929;-68
2022/12/24 07:19:00;;;;;;;;;;;32.10;66.60;;;;;;5007452;28;19996;-67
2022/12/24 07:21:27;;;;;;;;;;;32.10;66.10;;;;;;5014900;28;19926;-67
2022/12/24 07:23:53;;;;;;;;;;;32.10;66.20;;;;;;5022568;28;19924;-68
2022/12/24 07:26:20;;;;;;;;;;;32.00;65.90;;;;;;5019774;28;20012;-68
2022/12/24 07:28:47;;;;;;;;;;;31.80;66.10;;;;;;5023869;28;19913;-67
2022/12/24 07:31:13;;;;;;;;;;;31.80;66.60;;;;;;5029177;28;19956;-68
2022/12/24 07:33:40;;;;;;;;;;;31.70;66.50;;;;;;5019363;28;20228;-68
2022/12/24 07:36:07;;;;;;;;;;;31.60;66.90;;;;;;5028340;28;19921;-68
2022/12/24 07:38:35;;;;;;;;;;;31.50;66.60;;;;;;5024260;28;19939;-70
2022/12/24 07:41:01;;;;;;;;;;;31.40;66.50;;;;;;5025092;28;19933;-68
2022/12/24 07:43:28;;;;;;;;;;;31.40;66.80;;;;;;5023393;28;19963;-68
2022/12/24 07:45:56;;;;;;;;;;;31.40;66.90;;;;;;5019071;28;20775;-69
2022/12/24 07:48:23;;;;;;;;;;;31.40;66.80;;;;;;5020555;28;19936;-68
2022/12/24 07:50:50;;;;;;;;;;;31.30;66.40;;;;;;5024481;28;19925;-68
2022/12/24 07:53:16;;;;;;;;;;;31.30;66.20;;;;;;5024005;28;19917;-68
2022/12/24 07:55:43;;;;;;;;;;;31.20;66.30;;;;;;5030726;28;19928;-68
2022/12/24 07:58:10;;;;;;;;;;;31.10;65.80;;;;;;5016518;28;19913;-69
2022/12/24 08:00:37;;;;;;;;;;;31.10;65.90;;;;;;5024717;28;19960;-68
2022/12/24 08:03:03;;;;;;;;;;;31.00;66.50;;;;;;5023472;28;19920;-68
2022/12/24 08:05:33;;;;;;;;;;;31.00;66.60;;;;;;5023716;28;19917;-68
2022/12/24 08:08:00;;;;;;;;;;;30.90;66.30;;;;;;5019070;28;19958;-69
2022/12/24 08:10:26;;;;;;;;;;;30.90;66.90;;;;;;5018897;28;20392;-68
2022/12/24 08:12:53;;;;;;;;;;;30.90;67.10;;;;;;5020808;28;19913;-69
2022/12/24 08:15:20;;;;;;;;;;;30.80;67.00;;;;;;5025130;28;20040;-69
2022/12/24 08:17:46;;;;;;;;;;;30.70;67.30;;;;;;5020306;28;20609;-69
2022/12/24 08:20:16;;;;;;;;;;;30.60;67.10;;;;;;5019370;28;19978;-69
2022/12/24 08:22:42;;;;;;;;;;;30.50;67.30;;;;;;5020725;28;20264;-69
2022/12/24 08:25:09;;;;;;;;;;;30.40;67.50;;;;;;5022815;28;19975;-69
2022/12/24 08:27:36;;;;;;;;;;;30.30;67.70;;;;;;5019282;28;19917;-70
2022/12/24 08:30:03;;;;;;;;;;;30.30;67.50;;;;;;5025209;28;19924;-69
2022/12/24 08:32:30;;;;;;;;;;;30.20;67.60;;;;;;5017885;28;19917;-69
2022/12/24 08:34:56;;;;;;;;;;;30.10;67.40;;;;;;5020794;28;19978;-68
2022/12/24 08:37:23;;;;;;;;;;;30.00;67.10;;;;;;5016560;28;21459;-69
2022/12/24 08:39:50;;;;;;;;;;;29.90;67.40;;;;;;5017046;28;19945;-68
2022/12/24 08:42:16;;;;;;;;;;;29.90;67.90;;;;;;5026194;28;20004;-68
2022/12/24 08:44:43;;;;;;;;;;;29.70;67.90;;;;;;5023834;28;19939;-67
2022/12/24 08:47:09;;;;;;;;;;;29.60;68.20;;;;;;5027198;28;20268;-70
2022/12/24 08:49:36;;;;;;;;;;;29.50;67.90;;;;;;5024598;28;19928;-69
2022/12/24 08:52:03;;;;;;;;;;;29.40;68.20;;;;;;5022401;28;19921;-69
2022/12/24 08:54:29;;;;;;;;;;;29.30;69.40;;;;;;5023169;28;19917;-70
2022/12/24 08:56:56;;;;;;;;;;;29.20;68.40;;;;;;5018527;28;19917;-70
2022/12/24 08:59:23;;;;;;;;;;;29.10;68.80;;;;;;5021724;28;19920;-70
2022/12/24 09:01:49;;;;;;;;;;;29.00;69.10;;;;;;5018484;28;19917;-70
2022/12/24 09:04:16;;;;;;;;;;;28.80;69.50;;;;;;5015897;28;19917;-70
2022/12/24 09:06:43;;;;;;;;;;;28.70;69.90;;;;;;5017953;28;19970;-70
2022/12/24 09:09:09;;;;;;;;;;;28.60;69.90;;;;;;5016698;28;20028;-70
2022/12/24 09:11:36;;;;;;;;;;;28.50;70.00;;;;;;5027962;28;19970;-70
2022/12/24 09:14:03;;;;;;;;;;;28.40;70.10;;;;;;5020773;28;19984;-69
2022/12/24 09:16:29;;;;;;;;;;;28.30;70.30;;;;;;5025116;28;19917;-70
2022/12/24 09:18:57;;;;;;;;;;;28.20;70.60;;;;;;5019294;28;19918;-70
2022/12/24 09:21:24;;;;;;;;;;;28.10;70.40;;;;;;5029632;28;20387;-69
2022/12/24 09:23:50;;;;;;;;;;;28.10;70.10;;;;;;5016401;28;19928;-69
2022/12/24 09:26:25;;;;;;;;;;;28.00;70.60;;;;;;5025910;28;20417;-69
2022/12/24 09:28:52;;;;;;;;;;;28.00;70.60;;;;;;5023595;28;19936;-68
2022/12/24 09:31:20;;;;;;;;;;;27.90;70.10;;;;;;5018789;28;19919;-69
2022/12/24 09:33:48;;;;;;;;;;;27.90;70.60;;;;;;5019287;28;19921;-69
2022/12/24 09:36:14;;;;;;;;;;;27.80;70.60;;;;;;5021780;28;19922;-69
2022/12/24 09:38:42;;;;;;;;;;;27.80;71.10;;;;;;5023706;28;19952;-69
2022/12/24 09:41:11;;;;;;;;;;;27.70;71.30;;;;;;5018586;28;19917;-69
2022/12/24 09:43:38;;;;;;;;;;;27.60;71.70;;;;;;5021133;28;20045;-69
2022/12/24 09:46:08;;;;;;;;;;;27.50;72.50;;;;;;5026844;28;19967;-69
2022/12/24 09:48:37;;;;;;;;;;;27.40;72.20;;;;;;5025096;28;19919;-69
2022/12/24 09:51:11;;;;;;;;;;;27.40;72.50;;;;;;5028053;28;20351;-69
2022/12/24 09:53:48;;;;;;;;;;;27.20;73.30;;;;;;5016679;28;20019;-69
2022/12/24 09:56:20;;;;;;;;;;;27.10;73.00;;;;;;5027796;28;19921;-69
2022/12/24 09:58:57;;;;;;;;;;;27.00;73.50;;;;;;5023270;28;20326;-69
2022/12/24 10:01:23;;;;;;;;;;;26.90;74.00;;;;;;5019261;28;20409;-68
2022/12/24 10:03:50;;;;;;;;;;;26.80;74.60;;;;;;5023763;28;19921;-68
2022/12/24 10:06:23;;;;;;;;;;;26.70;74.80;;;;;;5023667;28;20418;-68
2022/12/24 10:09:01;;;;;;;;;;;26.70;75.00;;;;;;5027823;28;20023;-68
2022/12/24 10:11:28;;;;;;;;;;;26.60;75.60;;;;;;5024005;28;19962;-68
2022/12/24 10:14:15;;;;;;;;;;;26.50;75.70;;;;;;5022794;28;20000;-69
2022/12/24 10:16:49;;;;;;;;;;;26.40;75.80;;;;;;5022442;28;20036;-70
2022/12/24 10:19:20;;;;;;;;;;;26.40;76.20;;;;;;5017858;28;19956;-69
2022/12/24 10:21:49;;;;;;;;;;;26.40;76.80;;;;;;5017925;28;19925;-69
2022/12/24 10:24:24;;;;;;;;;;;26.30;77.30;;;;;;5020646;28;19921;-69
2022/12/24 10:26:58;;;;;;;;;;;26.20;77.50;;;;;;5021813;28;20383;-70
2022/12/24 10:29:31;;;;;;;;;;;26.20;78.00;;;;;;5019536;28;19921;-69
2022/12/24 10:32:02;;;;;;;;;;;26.10;78.60;;;;;;5023618;28;19924;-69
2022/12/24 10:34:32;;;;;;;;;;;26.00;78.50;;;;;;5023765;28;19933;-70
2022/12/24 10:37:01;;;;;;;;;;;26.00;78.90;;;;;;5022284;28;19921;-68
2022/12/24 10:39:31;;;;;;;;;;;25.90;79.10;;;;;;5015507;28;20327;-69
2022/12/24 10:41:59;;;;;;;;;;;25.80;79.40;;;;;;5022866;28;19928;-68
2022/12/24 10:44:27;;;;;;;;;;;25.80;79.80;;;;;;5016557;28;19997;-68
2022/12/24 10:46:54;;;;;;;;;;;25.70;80.10;;;;;;5019151;28;19944;-68
2022/12/24 10:49:33;;;;;;;;;;;25.70;80.40;;;;;;5016392;28;19928;-68
2022/12/24 10:52:03;;;;;;;;;;;25.60;80.60;;;;;;5010148;28;19913;-68
2022/12/24 10:54:37;;;;;;;;;;;25.60;80.60;;;;;;5009925;28;19928;-69
2022/12/24 10:57:04;;;;;;;;;;;25.50;80.90;;;;;;5018903;28;19935;-69
2022/12/24 10:59:41;;;;;;;;;;;25.30;81.20;;;;;;5015090;28;19924;-70
2022/12/24 11:02:26;;;;;;;;;;;25.20;81.40;;;;;;5019045;28;19967;-71
2022/12/24 11:04:53;;;;;;;;;;;25.20;81.50;;;;;;5012920;28;19913;-69
2022/12/24 11:07:21;;;;;;;;;;;25.00;82.10;;;;;;5025608;28;19960;-69
2022/12/24 11:09:55;;;;;;;;;;;25.00;82.40;;;;;;5021035;28;19921;-69
2022/12/24 11:12:24;;;;;;;;;;;24.90;83.00;;;;;;5018780;28;20372;-70
2022/12/24 11:15:00;;;;;;;;;;;24.80;83.50;;;;;;5025482;28;20459;-70
2022/12/24 11:17:27;;;;;;;;;;;24.70;84.10;;;;;;5021043;28;20387;-69
2022/12/24 11:19:54;;;;;;;;;;;24.70;84.20;;;;;;5025372;28;20016;-69
2022/12/24 11:22:23;;;;;;;;;;;24.60;84.20;;;;;;5031570;28;20283;-69
2022/12/24 11:25:04;;;;;;;;;;;24.60;84.30;;;;;;5027556;28;19917;-69
2022/12/24 11:27:51;;;;;;;;;;;24.50;84.60;;;;;;5013064;28;19953;-69
2022/12/24 11:30:21;;;;;;;;;;;24.40;85.10;;;;;;5029261;28;20204;-69
2022/12/24 11:32:49;;;;;;;;;;;24.40;85.50;;;;;;5031621;28;20383;-69
2022/12/24 11:35:18;;;;;;;;;;;24.40;86.40;;;;;;5033266;28;19929;-69
2022/12/24 11:37:44;;;;;;;;;;;24.40;86.80;;;;;;5032441;28;19909;-69
2022/12/24 11:40:21;;;;;;;;;;;24.30;86.90;;;;;;5030661;28;19913;-69
2022/12/24 11:42:52;;;;;;;;;;;24.30;87.30;;;;;;5029150;28;19928;-68
2022/12/24 11:45:29;;;;;;;;;;;24.30;87.80;;;;;;5031903;28;19932;-69
2022/12/24 11:47:56;;;;;;;;;;;24.20;89.00;;;;;;5030238;28;20371;-68
2022/12/24 11:50:29;;;;;;;;;;;24.20;90.20;;;;;;5030130;28;19917;-70
2022/12/24 11:52:59;;;;;;;;;;;24.20;90.60;;;;;;5028398;28;19913;-69
2022/12/24 11:55:46;;;;;;;;;;;24.20;91.00;;;;;;5024075;28;20265;-69
2022/12/24 11:58:16;;;;;;;;;;;24.10;91.30;;;;;;5023234;28;20628;-69
2022/12/24 12:00:43;;;;;;;;;;;24.10;91.70;;;;;;5031317;28;19910;-69
2022/12/24 12:03:20;;;;;;;;;;;24.00;92.20;;;;;;5031249;28;20008;-68
2022/12/24 12:05:46;;;;;;;;;;;24.00;92.60;;;;;;5031665;28;19959;-68
2022/12/24 12:08:16;;;;;;;;;;;24.00;92.80;;;;;;5030294;28;19913;-69
2022/12/24 12:10:44;;;;;;;;;;;23.90;93.20;;;;;;5027247;28;19920;-69
2022/12/24 12:13:16;;;;;;;;;;;23.90;93.50;;;;;;5030557;28;19957;-69
2022/12/24 12:15:44;;;;;;;;;;;23.80;93.80;;;;;;5029306;28;19921;-69
2022/12/24 12:18:36;;;;;;;;;;;23.80;94.30;;;;;;5020339;28;19917;-72
2022/12/24 12:21:05;;;;;;;;;;;23.70;94.60;;;;;;5016858;28;19925;-69
2022/12/24 12:23:36;;;;;;;;;;;23.70;95.00;;;;;;5024003;28;19913;-69
2022/12/24 12:26:21;;;;;;;;;;;23.60;95.50;;;;;;5027305;28;19917;-69
2022/12/24 12:29:16;;;;;;;;;;;23.60;95.80;;;;;;5015770;28;19921;-69
2022/12/24 12:31:53;;;;;;;;;;;23.50;96.30;;;;;;4970433;28;19915;-69
2022/12/24 12:34:28;;;;;;;;;;;23.50;97.00;;;;;;5025269;28;19928;-69
2022/12/24 12:37:02;;;;;;;;;;;23.50;97.70;;;;;;5024766;28;19917;-69
2022/12/24 12:39:30;;;;;;;;;;;23.40;98.50;;;;;;5024759;28;19921;-68
2022/12/24 12:42:16;;;;;;;;;;;23.40;99.20;;;;;;5026145;28;20421;-69
2022/12/24 12:44:44;;;;;;;;;;;23.40;99.90;;;;;;4998137;28;19924;-70
2022/12/24 12:47:10;;;;;;;;;;;23.30;99.90;;;;;;5025200;28;20000;-69
2022/12/24 12:49:48;;;;;;;;;;;23.30;99.90;;;;;;5022198;28;19956;-68
2022/12/24 12:52:33;;;;;;;;;;;23.30;99.90;;;;;;5019500;28;20012;-68
2022/12/24 12:55:02;;;;;;;;;;;23.20;99.90;;;;;;5018276;28;20257;-68
2022/12/24 12:57:32;;;;;;;;;;;23.20;99.90;;;;;;5022499;28;19917;-68
2022/12/24 13:00:01;;;;;;;;;;;23.20;99.90;;;;;;5024055;28;19918;-69
2022/12/24 13:03:00;;;;;;;;;;;23.20;99.90;;;;;;5023895;28;19917;-70
2022/12/24 13:06:04;;;;;;;;;;;23.10;99.90;;;;;;4979897;28;19917;-70
2022/12/24 13:08:49;;;;;;;;;;;23.10;99.90;;;;;;4943735;28;20187;-69
2022/12/24 13:11:18;;;;;;;;;;;23.10;99.90;;;;;;4949812;28;19915;-69
2022/12/24 13:13:48;;;;;;;;;;;23.00;99.90;;;;;;4991069;28;19917;-70
2022/12/24 13:16:32;;;;;;;;;;;23.00;99.90;;;;;;5020422;28;19925;-70
2022/12/24 13:19:22;;;;;;;;;;;23.10;99.90;;;;;;5022908;28;19925;-70
2022/12/24 13:21:50;;;;;;;;;;;23.00;99.90;;;;;;5020344;28;20007;-69
2022/12/24 13:24:19;;;;;;;;;;;22.90;99.90;;;;;;5021141;28;19913;-70
2022/12/24 13:27:01;;;;;;;;;;;22.90;99.90;;;;;;5026964;28;20368;-70
2022/12/24 13:29:41;;;;;;;;;;;22.80;99.90;;;;;;5018521;28;19925;-69
2022/12/24 13:32:34;;;;;;;;;;;22.80;99.90;;;;;;5020910;28;19957;-69
2022/12/24 13:35:02;;;;;;;;;;;22.80;99.90;;;;;;4989440;28;19937;-69
2022/12/24 13:37:29;;;;;;;;;;;22.80;99.90;;;;;;5024851;28;19963;-70
2022/12/24 13:40:05;;;;;;;;;;;22.70;99.90;;;;;;5024163;28;19987;-70
2022/12/24 13:42:47;;;;;;;;;;;22.70;99.90;;;;;;5022792;28;19914;-70
2022/12/24 13:45:32;;;;;;;;;;;22.70;99.90;;;;;;5026512;28;19980;-70
2022/12/24 13:48:07;;;;;;;;;;;22.70;99.90;;;;;;5019696;28;20392;-70
2022/12/24 13:50:36;;;;;;;;;;;22.60;99.90;;;;;;5023196;28;19913;-71
2022/12/24 13:53:04;;;;;;;;;;;22.50;99.90;;;;;;5024457;28;20015;-70
2022/12/24 13:55:32;;;;;;;;;;;22.50;99.90;;;;;;5023795;28;20039;-68
2022/12/24 13:58:01;;;;;;;;;;;22.40;99.90;;;;;;5018542;28;19932;-70
2022/12/24 14:00:38;;;;;;;;;;;22.40;99.90;;;;;;5024210;28;19924;-69
2022/12/24 14:03:13;;;;;;;;;;;22.40;99.90;;;;;;5021352;28;19928;-69
2022/12/24 14:05:43;;;;;;;;;;;22.30;99.90;;;;;;5021624;28;19963;-69
2022/12/24 14:08:14;;;;;;;;;;;22.30;99.90;;;;;;5020225;28;19921;-69
2022/12/24 14:11:04;;;;;;;;;;;22.20;99.90;;;;;;5022161;28;20371;-69
2022/12/24 14:13:37;;;;;;;;;;;22.20;99.90;;;;;;5021306;28;19923;-69
2022/12/24 14:16:07;;;;;;;;;;;22.10;99.90;;;;;;5027354;28;20286;-69
2022/12/24 14:18:41;;;;;;;;;;;22.00;99.90;;;;;;5021101;28;19928;-70
2022/12/24 14:21:15;;;;;;;;;;;22.00;99.90;;;;;;5010927;28;19987;-70
2022/12/24 14:23:42;;;;;;;;;;;21.90;99.90;;;;;;5006259;28;19917;-73
2022/12/24 14:26:14;;;;;;;;;;;21.90;99.90;;;;;;5001247;28;20519;-70
2022/12/24 14:28:47;;;;;;;;;;;21.80;99.90;;;;;;5001033;28;20292;-70
2022/12/24 14:31:15;;;;;;;;;;;21.80;99.90;;;;;;5000496;28;20515;-70
2022/12/24 14:33:42;;;;;;;;;;;21.70;99.90;;;;;;5001498;28;20284;-69
2022/12/24 14:36:11;;;;;;;;;;;21.70;99.90;;;;;;4987659;28;20376;-70
2022/12/24 14:38:39;;;;;;;;;;;21.70;99.90;;;;;;4993290;28;19918;-70